createdAt,value
2022-09-26T00:01:43.082Z,2.80
2022-09-26T00:04:23.264Z,2.80
2022-09-26T00:06:52.325Z,2.80
2022-09-26T00:09:21.804Z,2.80
2022-09-26T00:11:50.759Z,2.87
2022-09-26T00:14:22.376Z,3.00
2022-09-26T00:16:51.437Z,2.72
2022-09-26T00:19:20.327Z,3.10
2022-09-26T00:21:49.457Z,3.47
2022-09-26T00:24:18.056Z,4.03
2022-09-26T00:26:46.511Z,3.45
2022-09-26T00:29:15.334Z,3.33
2022-09-26T00:31:45.921Z,3.35
2022-09-26T00:34:16.692Z,3.33
2022-09-26T00:36:45.656Z,3.25
2022-09-26T00:39:16.357Z,3.95
2022-09-26T00:41:45.546Z,2.90
2022-09-26T00:44:33.754Z,3.58
2022-09-26T00:47:03.026Z,3.72
2022-09-26T00:49:37.167Z,3.85
2022-09-26T00:52:11.417Z,4.12
2022-09-26T00:54:44.417Z,3.47
2022-09-26T00:57:18.691Z,3.60
2022-09-26T00:59:50.282Z,3.90
2022-09-26T01:02:19.418Z,3.40
2022-09-26T01:04:48.728Z,5.80
2022-09-26T01:07:20.276Z,8.68
2022-09-26T01:09:49.845Z,9.60
2022-09-26T01:12:19.127Z,10.78
2022-09-26T01:14:49.399Z,10.40
2022-09-26T01:17:18.174Z,9.85
2022-09-26T01:20:04.847Z,8.70
2022-09-26T01:22:45.392Z,8.98
2022-09-26T01:25:19.895Z,6.80
2022-09-26T01:28:10.544Z,7.53
2022-09-26T01:30:50.668Z,6.70
2022-09-26T01:33:22.257Z,6.12
2022-09-26T01:35:54.254Z,5.40
2022-09-26T01:38:26.530Z,5.13
2022-09-26T01:41:19.139Z,5.37
2022-09-26T01:43:56.328Z,5.22
2022-09-26T01:46:31.246Z,5.33
2022-09-26T01:49:02.810Z,5.60
2022-09-26T01:51:49.356Z,4.95
2022-09-26T01:54:23.931Z,4.70
2022-09-26T01:56:55.677Z,4.85
2022-09-26T01:59:29.890Z,4.85
2022-09-26T02:02:01.526Z,4.33
2022-09-26T02:04:35.959Z,4.62
2022-09-26T02:07:16.710Z,4.15
2022-09-26T02:10:00.311Z,4.78
2022-09-26T02:12:36.178Z,4.83
2022-09-26T02:15:11.064Z,5.60
2022-09-26T02:17:45.270Z,5.40
2022-09-26T02:20:16.918Z,4.40
2022-09-26T02:22:45.580Z,4.97
2022-09-26T02:25:14.108Z,5.40
2022-09-26T02:27:42.896Z,5.33
2022-09-26T02:30:12.080Z,5.60
2022-09-26T02:32:40.956Z,5.70
2022-09-26T02:35:14.796Z,4.95
2022-09-26T02:37:43.987Z,5.42
2022-09-26T02:40:12.547Z,4.90
2022-09-26T02:42:47.077Z,5.33
2022-09-26T02:45:42.769Z,4.95
2022-09-26T02:48:20.277Z,4.60
2022-09-26T02:50:52.158Z,4.70
2022-09-26T02:53:55.161Z,5.03
2022-09-26T02:56:32.703Z,5.47
2022-09-26T02:59:07.271Z,5.35
2022-09-26T03:01:56.470Z,5.55
2022-09-26T03:04:28.164Z,5.25
2022-09-26T03:06:59.775Z,5.37
2022-09-26T03:09:30.367Z,5.50
2022-09-26T03:12:01.959Z,5.65
2022-09-26T03:14:33.163Z,5.30
2022-09-26T03:17:03.425Z,5.42
2022-09-26T03:19:41.003Z,5.47
2022-09-26T03:22:10.488Z,5.53
2022-09-26T03:24:43.687Z,5.33
2022-09-26T03:27:14.379Z,6.33
2022-09-26T03:29:43.343Z,5.75
2022-09-26T03:32:11.986Z,6.45
2022-09-26T03:34:40.540Z,5.90
2022-09-26T03:37:09.311Z,6.25
2022-09-26T03:39:37.906Z,6.45
2022-09-26T03:42:06.578Z,6.03
2022-09-26T03:44:35.144Z,5.60
2022-09-26T03:47:03.652Z,6.35
2022-09-26T03:49:32.256Z,6.15
2022-09-26T03:52:00.866Z,6.17
2022-09-26T03:54:30.053Z,5.75
2022-09-26T03:56:58.591Z,6.33
2022-09-26T03:59:27.125Z,5.90
2022-09-26T04:01:55.951Z,5.72
2022-09-26T04:04:24.574Z,5.25
2022-09-26T04:06:53.106Z,5.87
2022-09-26T04:09:22.042Z,5.30
2022-09-26T04:11:51.020Z,5.65
2022-09-26T04:14:20.016Z,5.37
2022-09-26T04:16:48.621Z,5.22
2022-09-26T04:19:17.457Z,5.78
2022-09-26T04:21:46.001Z,5.30
2022-09-26T04:24:16.367Z,5.30
2022-09-26T04:26:45.461Z,5.60
2022-09-26T04:29:15.323Z,5.75
2022-09-26T04:31:44.002Z,5.75
2022-09-26T04:34:14.805Z,5.05
2022-09-26T04:36:43.573Z,5.20
2022-09-26T04:39:12.602Z,5.40
2022-09-26T04:41:41.284Z,5.65
2022-09-26T04:44:12.717Z,5.97
2022-09-26T04:46:41.324Z,4.92
2022-09-26T04:49:11.005Z,5.60
2022-09-26T04:51:39.550Z,4.95
2022-09-26T04:54:08.571Z,5.08
2022-09-26T04:56:37.083Z,5.10
2022-09-26T04:59:05.728Z,5.25
2022-09-26T05:01:34.500Z,5.00
2022-09-26T05:04:03.977Z,4.78
2022-09-26T05:06:32.506Z,4.95
2022-09-26T05:09:01.124Z,5.25
2022-09-26T05:11:29.662Z,4.47
2022-09-26T05:13:58.194Z,5.15
2022-09-26T05:16:28.113Z,5.50
2022-09-26T05:18:56.920Z,4.87
2022-09-26T05:21:26.489Z,5.28
2022-09-26T05:24:12.583Z,5.25
2022-09-26T05:26:44.872Z,5.45
2022-09-26T05:29:13.476Z,4.95
2022-09-26T05:31:43.485Z,4.75
2022-09-26T05:34:18.737Z,4.30
2022-09-26T05:36:43.858Z,4.78
2022-09-26T05:39:30.096Z,4.05
2022-09-26T05:41:59.913Z,4.53
2022-09-26T05:44:29.529Z,4.08
2022-09-26T05:46:59.071Z,3.83
2022-09-26T05:49:27.731Z,3.95
2022-09-26T05:51:57.511Z,4.08
2022-09-26T05:54:26.115Z,3.85
2022-09-26T05:56:54.652Z,3.67
2022-09-26T05:59:23.556Z,4.22
2022-09-26T06:01:52.326Z,3.72
2022-09-26T06:04:20.960Z,4.00
2022-09-26T06:06:50.679Z,3.15
2022-09-26T06:09:19.275Z,3.22
2022-09-26T06:11:47.745Z,2.87
2022-09-26T06:14:16.300Z,3.35
2022-09-26T06:16:44.897Z,3.30
2022-09-26T06:19:13.487Z,2.83
2022-09-26T06:21:43.665Z,2.33
2022-09-26T06:24:13.040Z,2.00
2022-09-26T06:26:41.597Z,2.20
2022-09-26T06:29:11.646Z,2.08
2022-09-26T06:31:40.539Z,2.00
2022-09-26T06:34:09.160Z,2.10
2022-09-26T06:36:38.687Z,2.00
2022-09-26T06:39:07.230Z,2.00
2022-09-26T06:41:35.832Z,2.58
2022-09-26T06:44:04.380Z,2.20
2022-09-26T06:46:32.986Z,2.27
2022-09-26T06:49:01.493Z,2.47
2022-09-26T06:51:31.778Z,2.55
2022-09-26T06:54:00.494Z,2.27
2022-09-26T06:56:29.018Z,2.33
2022-09-26T06:58:57.643Z,2.47
2022-09-26T07:01:26.302Z,2.02
2022-09-26T07:03:54.922Z,2.25
2022-09-26T07:06:23.466Z,2.05
2022-09-26T07:09:12.340Z,2.45
2022-09-26T07:13:53.035Z,2.10
2022-09-26T07:16:21.892Z,1.85
2022-09-26T07:18:50.459Z,1.98
2022-09-26T07:21:18.992Z,2.45
2022-09-26T07:23:47.670Z,1.75
2022-09-26T07:26:16.213Z,1.70
2022-09-26T07:28:44.743Z,1.55
2022-09-26T07:31:13.987Z,1.65
2022-09-26T07:33:42.661Z,1.52
2022-09-26T07:36:11.301Z,1.55
2022-09-26T07:38:39.955Z,1.60
2022-09-26T07:41:10.209Z,1.50
2022-09-26T07:44:52.942Z,1.77
2022-09-26T07:46:26.479Z,1.60
2022-09-26T07:49:12.945Z,1.57
2022-09-26T07:51:41.550Z,1.50
2022-09-26T07:54:10.181Z,1.47
2022-09-26T07:56:38.890Z,1.47
2022-09-26T07:59:07.461Z,1.40
2022-09-26T08:01:37.724Z,1.37
2022-09-26T08:04:06.703Z,1.75
2022-09-26T08:06:36.597Z,1.50
2022-09-26T08:09:05.274Z,1.47
2022-09-26T08:11:33.817Z,1.40
2022-09-26T08:14:02.348Z,1.30
2022-09-26T08:16:30.973Z,1.10
2022-09-26T08:18:59.596Z,1.20
2022-09-26T08:21:28.130Z,1.30
2022-09-26T08:23:56.676Z,1.10
2022-09-26T08:26:25.224Z,1.17
2022-09-26T08:28:54.538Z,0.90
2022-09-26T08:31:23.302Z,1.05
2022-09-26T08:33:51.810Z,1.27
2022-09-26T08:36:21.398Z,1.05
2022-09-26T08:38:51.007Z,1.02
2022-09-26T08:41:44.242Z,1.00
2022-09-26T08:46:53.140Z,1.00
2022-09-26T08:49:50.813Z,1.02
2022-09-26T08:52:47.645Z,0.90
2022-09-26T08:55:19.408Z,1.70
2022-09-26T08:58:05.917Z,1.00
2022-09-26T09:00:39.196Z,1.17
2022-09-26T09:03:13.815Z,1.00
2022-09-26T09:05:48.691Z,1.05
2022-09-26T09:08:23.017Z,1.17
2022-09-26T09:11:22.955Z,1.17
2022-09-26T09:14:27.660Z,1.10
2022-09-26T09:17:08.296Z,0.93
2022-09-26T09:19:47.265Z,1.20
2022-09-26T09:22:27.920Z,0.90
2022-09-26T09:25:11.314Z,1.10
2022-09-26T09:28:08.386Z,1.02
2022-09-26T09:30:59.432Z,1.40
2022-09-26T09:33:46.173Z,1.25
2022-09-26T09:36:17.792Z,1.32
2022-09-26T09:38:48.769Z,1.32
2022-09-26T09:41:29.341Z,1.60
2022-09-26T09:44:03.757Z,1.45
2022-09-26T09:46:41.129Z,1.40
2022-09-26T09:49:12.773Z,1.12
2022-09-26T09:51:56.184Z,1.60
2022-09-26T09:54:42.790Z,1.40
2022-09-26T09:57:23.403Z,1.40
2022-09-26T09:59:57.973Z,1.50
2022-09-26T10:02:47.469Z,1.35
2022-09-26T10:05:37.108Z,1.57
2022-09-26T10:08:11.691Z,1.72
2022-09-26T10:11:13.030Z,1.47
2022-09-26T10:13:42.956Z,1.60
2022-09-26T10:16:16.753Z,1.10
2022-09-26T10:19:07.915Z,1.47
2022-09-26T10:21:45.039Z,1.62
2022-09-26T10:24:35.648Z,1.50
2022-09-26T10:27:36.982Z,1.27
2022-09-26T10:30:20.471Z,1.85
2022-09-26T10:32:56.716Z,1.25
2022-09-26T10:35:42.059Z,1.62
2022-09-26T10:38:26.731Z,1.55
2022-09-26T10:40:59.315Z,1.65
2022-09-26T10:43:36.003Z,1.40
2022-09-26T10:46:10.677Z,1.60
2022-09-26T10:48:44.085Z,1.40
2022-09-26T10:51:21.355Z,1.20
2022-09-26T10:53:52.824Z,1.22
2022-09-26T10:56:30.421Z,1.72
2022-09-26T10:59:03.923Z,1.30
2022-09-26T11:01:33.453Z,1.40
2022-09-26T11:04:14.133Z,1.37
2022-09-26T11:06:46.981Z,1.40
2022-09-26T11:11:47.914Z,1.32
2022-09-26T11:14:19.564Z,1.42
2022-09-26T11:16:54.211Z,1.25
2022-09-26T11:19:42.509Z,1.27
2022-09-26T11:22:16.823Z,1.27
2022-09-26T11:25:00.796Z,1.30
2022-09-26T11:27:36.875Z,1.20
2022-09-26T11:30:18.920Z,1.25
2022-09-26T11:32:53.936Z,1.10
2022-09-26T11:35:39.306Z,1.10
2022-09-26T11:38:11.001Z,1.25
2022-09-26T11:41:02.943Z,1.07
2022-09-26T11:43:53.670Z,1.10
2022-09-26T11:46:48.998Z,1.10
2022-09-26T11:49:23.179Z,1.10
2022-09-26T11:52:21.525Z,1.22
2022-09-26T11:55:01.889Z,1.10
2022-09-26T11:57:42.343Z,1.20
2022-09-26T12:00:26.362Z,1.30
2022-09-26T12:03:00.692Z,1.17
2022-09-26T12:05:52.129Z,1.00
2022-09-26T12:08:32.490Z,1.30
2022-09-26T12:11:10.432Z,1.10
2022-09-26T12:14:04.439Z,1.20
2022-09-26T12:16:46.484Z,1.00
2022-09-26T12:19:27.221Z,1.20
2022-09-26T12:22:16.499Z,0.90
2022-09-26T12:24:59.912Z,1.00
2022-09-26T12:27:57.170Z,0.90
2022-09-26T12:30:33.269Z,1.10
2022-09-26T12:33:28.800Z,1.15
2022-09-26T12:36:04.129Z,1.10
2022-09-26T12:38:55.739Z,1.05
2022-09-26T12:41:32.738Z,1.30
2022-09-26T12:44:29.929Z,1.00
2022-09-26T12:47:17.892Z,1.15
2022-09-26T12:50:08.926Z,1.10
2022-09-26T12:52:57.452Z,0.93
2022-09-26T12:55:35.013Z,1.10
2022-09-26T12:58:16.720Z,1.40
2022-09-26T13:00:55.827Z,1.32
2022-09-26T13:03:43.853Z,1.17
2022-09-26T13:07:02.163Z,1.30
2022-09-26T13:09:39.512Z,1.20
2022-09-26T13:12:30.331Z,1.12
2022-09-26T13:15:07.875Z,1.00
2022-09-26T13:17:42.487Z,1.30
2022-09-26T13:20:19.913Z,1.60
2022-09-26T13:22:51.565Z,1.22
2022-09-26T13:25:23.578Z,1.20
2022-09-26T13:27:58.040Z,1.10
2022-09-26T13:30:34.050Z,2.12
2022-09-26T13:33:08.716Z,1.82
2022-09-26T13:35:39.623Z,1.10
2022-09-26T13:38:27.952Z,1.20
2022-09-26T13:41:14.498Z,1.20
2022-09-26T13:44:14.774Z,1.30
2022-09-26T13:47:07.616Z,1.10
2022-09-26T13:49:50.007Z,1.32
2022-09-26T13:52:42.236Z,1.32
2022-09-26T13:55:18.271Z,1.45
2022-09-26T13:58:05.975Z,1.47
2022-09-26T14:00:39.208Z,1.22
2022-09-26T14:03:13.896Z,1.30
2022-09-26T14:05:49.838Z,1.50
2022-09-26T14:08:48.308Z,1.17
2022-09-26T14:11:35.227Z,1.20
2022-09-26T14:14:24.590Z,1.22
2022-09-26T14:16:55.450Z,1.40
2022-09-26T14:19:39.151Z,1.50
2022-09-26T14:22:20.678Z,1.70
2022-09-26T14:24:53.740Z,1.37
2022-09-26T14:27:27.943Z,2.33
2022-09-26T14:30:19.988Z,2.02
2022-09-26T14:32:48.603Z,1.80
2022-09-26T14:35:35.056Z,2.08
2022-09-26T14:38:12.117Z,2.08
2022-09-26T14:40:42.610Z,3.35
2022-09-26T14:43:19.505Z,2.83
2022-09-26T14:45:53.247Z,2.35
2022-09-26T14:48:38.633Z,2.83
2022-09-26T14:51:16.440Z,2.50
2022-09-26T14:53:50.911Z,2.37
2022-09-26T14:56:29.885Z,2.20
2022-09-26T14:59:27.319Z,2.87
2022-09-26T15:02:28.653Z,2.80
2022-09-26T15:05:12.184Z,4.50
2022-09-26T15:07:49.665Z,4.50
2022-09-26T15:10:24.360Z,6.72
2022-09-26T15:12:58.639Z,11.95
2022-09-26T15:15:48.133Z,5.95
2022-09-26T15:18:19.745Z,4.35
2022-09-26T15:21:04.150Z,4.35
2022-09-26T15:23:33.158Z,4.47
2022-09-26T15:26:03.071Z,3.45
2022-09-26T15:28:36.285Z,3.85
2022-09-26T15:31:26.452Z,3.35
2022-09-26T15:34:04.276Z,4.37
2022-09-26T15:36:35.661Z,6.40
2022-09-26T15:39:23.422Z,6.95
2022-09-26T15:42:09.946Z,3.45
2022-09-26T15:44:41.586Z,5.47
2022-09-26T15:47:33.816Z,4.60
2022-09-26T15:50:14.409Z,4.28
2022-09-26T15:52:51.474Z,5.17
2022-09-26T15:55:32.131Z,4.60
2022-09-26T15:58:04.282Z,4.83
2022-09-26T16:00:38.393Z,5.03
2022-09-26T16:03:38.377Z,3.35
2022-09-26T16:06:22.179Z,3.27
2022-09-26T16:08:56.788Z,4.90
2022-09-26T16:11:25.835Z,3.95
2022-09-26T16:13:56.468Z,3.30
2022-09-26T16:16:29.746Z,5.78
2022-09-26T16:19:04.449Z,4.12
2022-09-26T16:21:36.458Z,4.22
2022-09-26T16:24:28.996Z,3.63
2022-09-26T16:26:57.963Z,8.78
2022-09-26T16:29:35.910Z,3.52
2022-09-26T16:32:05.401Z,3.83
2022-09-26T16:34:34.165Z,3.77
2022-09-26T16:37:02.720Z,4.58
2022-09-26T16:39:32.467Z,13.48
2022-09-26T16:42:07.390Z,4.20
2022-09-26T16:44:41.013Z,3.30
2022-09-26T16:47:42.728Z,3.05
2022-09-26T16:50:28.951Z,3.62
2022-09-26T16:52:58.248Z,4.10
2022-09-26T16:55:27.705Z,2.95
2022-09-26T16:58:02.404Z,3.45
2022-09-26T17:00:52.573Z,3.00
2022-09-26T17:03:26.538Z,3.00
2022-09-26T17:05:57.422Z,5.62
2022-09-26T17:08:27.740Z,2.62
2022-09-26T17:10:59.214Z,3.05
2022-09-26T17:13:30.884Z,2.90
2022-09-26T17:16:01.465Z,3.50
2022-09-26T17:18:32.534Z,3.00
2022-09-26T17:21:01.491Z,3.30
2022-09-26T17:23:41.415Z,2.83
2022-09-26T17:26:04.332Z,3.62
2022-09-26T17:28:38.949Z,3.20
2022-09-26T17:31:09.057Z,2.58
2022-09-26T17:33:42.483Z,2.40
2022-09-26T17:36:14.090Z,1.80
2022-09-26T17:38:43.226Z,1.90
2022-09-26T17:41:13.465Z,1.90
2022-09-26T17:43:42.162Z,1.45
2022-09-26T17:46:16.446Z,1.50
2022-09-26T17:48:45.475Z,1.62
2022-09-26T17:51:14.639Z,1.50
2022-09-26T17:53:50.661Z,1.60
2022-09-26T17:56:21.708Z,1.25
2022-09-26T17:58:51.751Z,1.90
2022-09-26T18:01:31.061Z,1.60
2022-09-26T18:04:02.398Z,1.98
2022-09-26T18:06:33.271Z,1.42
2022-09-26T18:09:05.868Z,1.82
2022-09-26T18:11:34.787Z,1.57
2022-09-26T18:14:05.577Z,1.55
2022-09-26T18:16:34.042Z,1.47
2022-09-26T18:19:07.001Z,1.70
2022-09-26T18:21:32.740Z,2.10
2022-09-26T18:24:02.431Z,1.65
2022-09-26T18:26:37.126Z,1.90
2022-09-26T18:29:08.179Z,1.80
2022-09-26T18:31:40.943Z,1.50
2022-09-26T18:36:49.915Z,1.98
2022-09-26T18:39:18.517Z,2.25
2022-09-26T18:41:48.969Z,2.10
2022-09-26T18:44:20.113Z,2.00
2022-09-26T18:46:49.205Z,1.95
2022-09-26T18:49:18.338Z,1.85
2022-09-26T18:51:47.035Z,2.20
2022-09-26T18:54:17.696Z,2.10
2022-09-26T18:57:03.890Z,1.92
2022-09-26T18:59:32.435Z,2.20
2022-09-26T19:02:02.476Z,2.08
2022-09-26T19:04:32.221Z,1.72
2022-09-26T19:07:06.274Z,2.15
2022-09-26T19:09:36.224Z,1.90
2022-09-26T19:12:07.518Z,2.22
2022-09-26T19:14:36.434Z,1.75
2022-09-26T19:17:04.961Z,1.70
2022-09-26T19:19:33.565Z,1.60
2022-09-26T19:22:06.715Z,1.30
2022-09-26T19:24:44.306Z,1.30
2022-09-26T19:27:21.739Z,1.50
2022-09-26T19:30:05.043Z,1.47
2022-09-26T19:32:38.787Z,1.70
2022-09-26T19:35:12.506Z,1.57
2022-09-26T19:37:41.032Z,1.70
2022-09-26T19:40:17.735Z,1.50
2022-09-26T19:42:46.353Z,1.42
2022-09-26T19:45:15.611Z,1.95
2022-09-26T19:47:50.511Z,1.50
2022-09-26T19:50:21.402Z,1.65
2022-09-26T19:52:52.244Z,1.65
2022-09-26T19:55:26.412Z,1.70
2022-09-26T19:57:57.400Z,1.52
2022-09-26T20:00:26.402Z,1.57
2022-09-26T20:02:55.608Z,1.50
2022-09-26T20:05:26.560Z,1.70
2022-09-26T20:07:55.098Z,1.65
2022-09-26T20:10:27.388Z,1.67
2022-09-26T20:12:55.926Z,1.70
2022-09-26T20:15:24.621Z,1.65
2022-09-26T20:17:55.074Z,1.60
2022-09-26T20:20:25.487Z,1.57
2022-09-26T20:22:56.375Z,1.80
2022-09-26T20:25:28.065Z,1.82
2022-09-26T20:27:57.611Z,1.55
2022-09-26T20:30:44.612Z,1.98
2022-09-26T20:33:13.560Z,2.00
2022-09-26T20:35:47.666Z,2.22
2022-09-26T20:38:19.311Z,1.82
2022-09-26T20:40:49.137Z,2.20
2022-09-26T20:43:20.738Z,1.67
2022-09-26T20:45:49.581Z,2.17
2022-09-26T20:48:24.134Z,2.30
2022-09-26T20:50:53.089Z,2.47
2022-09-26T20:53:24.564Z,2.55
2022-09-26T20:55:55.124Z,3.27
2022-09-26T20:58:24.340Z,2.60
2022-09-26T21:00:53.232Z,3.33
2022-09-26T21:03:23.547Z,3.77
2022-09-26T21:05:52.538Z,3.98
2022-09-26T21:08:24.181Z,4.33
2022-09-26T21:10:52.878Z,4.53
2022-09-26T21:13:21.425Z,4.30
2022-09-26T21:15:50.156Z,4.75
2022-09-26T21:18:24.697Z,4.92
2022-09-26T21:20:54.754Z,4.17
2022-09-26T21:23:24.055Z,4.10
2022-09-26T21:25:52.603Z,4.20
2022-09-26T21:28:28.842Z,5.03
2022-09-26T21:31:00.563Z,4.47
2022-09-26T21:33:29.400Z,4.80
2022-09-26T21:35:58.686Z,4.28
2022-09-26T21:38:27.722Z,4.37
2022-09-26T21:40:59.548Z,4.53
2022-09-26T21:43:31.282Z,4.57
2022-09-26T21:45:59.958Z,4.80
2022-09-26T21:48:28.658Z,3.95
2022-09-26T21:51:00.053Z,4.65
2022-09-26T21:53:31.762Z,3.90
2022-09-26T21:56:07.369Z,4.30
2022-09-26T21:58:36.793Z,4.37
2022-09-26T22:01:05.619Z,4.55
2022-09-26T22:03:34.589Z,3.98
2022-09-26T22:06:07.547Z,3.45
2022-09-26T22:08:38.815Z,3.52
2022-09-26T22:11:12.008Z,3.52
2022-09-26T22:13:41.073Z,3.67
2022-09-26T22:16:11.865Z,3.75
2022-09-26T22:18:41.256Z,3.37
2022-09-26T22:21:11.677Z,3.58
2022-09-26T22:23:40.208Z,3.55
2022-09-26T22:26:09.106Z,3.98
2022-09-26T22:28:37.670Z,4.05
2022-09-26T22:31:06.844Z,4.28
2022-09-26T22:33:35.689Z,4.60
2022-09-26T22:36:05.190Z,5.35
2022-09-26T22:38:37.740Z,5.25
2022-09-26T22:41:07.731Z,5.35
2022-09-26T22:43:36.605Z,5.75
2022-09-26T22:46:08.028Z,5.62
2022-09-26T22:48:39.006Z,5.40
2022-09-26T22:51:08.192Z,6.08
2022-09-26T22:53:38.568Z,4.83
2022-09-26T22:56:09.861Z,5.17
2022-09-26T22:58:40.853Z,6.12
2022-09-26T23:01:12.784Z,4.03
2022-09-26T23:03:41.953Z,3.17
2022-09-26T23:06:11.526Z,2.70
2022-09-26T23:08:40.200Z,2.60
2022-09-26T23:11:11.566Z,2.58
2022-09-26T23:13:40.337Z,3.30
2022-09-26T23:16:11.753Z,3.05
2022-09-26T23:18:41.851Z,3.60
2022-09-26T23:21:12.969Z,3.35
2022-09-26T23:23:44.062Z,3.40
2022-09-26T23:26:24.386Z,3.02
2022-09-26T23:28:54.778Z,2.90
2022-09-26T23:31:24.082Z,2.95
2022-09-26T23:33:53.668Z,2.60
2022-09-26T23:36:22.700Z,3.22
2022-09-26T23:38:51.517Z,3.22
2022-09-26T23:41:20.199Z,2.83
2022-09-26T23:43:48.795Z,2.40
2022-09-26T23:46:17.713Z,2.50
2022-09-26T23:48:46.482Z,2.70
2022-09-26T23:51:15.205Z,3.60
2022-09-26T23:53:43.921Z,2.75
2022-09-26T23:56:16.913Z,3.02
2022-09-26T23:58:45.563Z,2.87
